Time;durP1;ratioP1;P1;durP2;ratioP2;P2;SDS_P1;SDS_P2;PMS_P1;PMS_P2;Temp;Humidity;BMP_temperature;BMP_pressure;BME280_temperature;BME280_humidity;BME280_pressure;Samples;Min_cycle;Max_cycle;Signal;HPM_P1;HPM_P2
2021/05/19 00:01:30;;;;;;;9.70;7.45;;;;;;;12.60;53.70;101519.16;4957419;28;122863;-62
2021/05/19 00:03:57;;;;;;;8.85;6.85;;;;;;;12.61;53.83;101521.75;4971560;28;115837;-64
2021/05/19 00:06:24;;;;;;;10.65;7.57;;;;;;;12.63;53.73;101525.22;4969769;28;115709;-63
2021/05/19 00:08:51;;;;;;;14.23;8.07;;;;;;;12.63;53.97;101519.91;4968358;28;124519;-62
2021/05/19 00:11:18;;;;;;;10.02;7.53;;;;;;;12.66;54.20;101514.47;4970243;28;123307;-62
2021/05/19 00:13:46;;;;;;;10.40;7.45;;;;;;;12.68;54.08;101517.06;4973488;28;114416;-62
2021/05/19 00:16:14;;;;;;;9.65;6.97;;;;;;;12.70;53.93;101514.34;4973078;28;113093;-62
2021/05/19 00:18:41;;;;;;;10.90;7.55;;;;;;;12.71;53.91;101510.75;4973857;28;125211;-62
2021/05/19 00:21:08;;;;;;;8.95;6.90;;;;;;;12.73;54.10;101508.88;4973344;28;123824;-62
2021/05/19 00:23:36;;;;;;;10.35;7.28;;;;;;;12.74;54.17;101510.63;4972433;28;114245;-62
2021/05/19 00:26:04;;;;;;;9.73;7.18;;;;;;;12.75;54.08;101507.00;4973534;28;113152;-62
2021/05/19 00:28:32;;;;;;;10.77;6.97;;;;;;;12.77;54.11;101507.81;4972419;28;124372;-62
2021/05/19 00:31:03;;;;;;;8.82;6.63;;;;;;;12.79;53.90;101503.28;4967123;28;124537;-63
2021/05/19 00:33:31;;;;;;;9.30;6.28;;;;;;;12.80;53.81;101505.03;4972503;28;114662;-63
2021/05/19 00:35:58;;;;;;;8.82;6.65;;;;;;;12.80;53.63;101505.03;4966783;28;114046;-63
2021/05/19 00:38:25;;;;;;;10.25;7.13;;;;;;;12.81;53.83;101504.13;4954255;28;124869;-63
2021/05/19 00:40:52;;;;;;;11.20;7.10;;;;;;;12.80;53.98;101499.72;4966345;28;124741;-63
2021/05/19 00:43:20;;;;;;;9.43;6.68;;;;;;;12.79;53.83;101503.28;4965904;28;114750;-63
2021/05/19 00:45:47;;;;;;;8.73;5.93;;;;;;;12.79;53.92;101503.28;4964643;28;114257;-63
2021/05/19 00:48:15;;;;;;;13.52;6.63;;;;;;;12.78;53.85;101496.25;4967465;28;124115;-63
2021/05/19 00:50:43;;;;;;;12.25;6.75;;;;;;;12.78;53.83;101501.56;4968771;28;123815;-65
2021/05/19 00:53:10;;;;;;;10.48;6.90;;;;;;;12.75;53.62;101501.69;4963351;28;114619;-63
2021/05/19 00:55:38;;;;;;;10.25;6.90;;;;;;;12.73;53.59;101493.78;4975822;28;114098;-63
2021/05/19 00:58:06;;;;;;;9.07;7.03;;;;;;;12.71;54.03;101494.78;4957467;28;123736;-63
2021/05/19 01:00:40;;;;;;;10.02;6.47;;;;;;;12.66;53.71;101493.22;4968712;28;127150;-63
2021/05/19 01:03:16;;;;;;;10.05;7.20;;;;;;;12.64;53.93;101489.75;4962681;28;113932;-64
2021/05/19 01:05:50;;;;;;;11.60;7.25;;;;;;;12.62;53.85;101491.63;4960786;28;114637;-63
2021/05/19 01:11:10;;;;;;;9.50;7.20;;;;;;;12.55;54.26;101484.84;4960664;28;124276;-63
2021/05/19 01:13:40;;;;;;;11.15;6.78;;;;;;;12.51;54.15;101483.25;4963481;28;115023;-63
2021/05/19 01:16:07;;;;;;;8.93;6.88;;;;;;;12.49;54.11;101479.78;4971973;28;114256;-64
2021/05/19 01:18:36;;;;;;;8.98;6.90;;;;;;;12.46;54.03;101479.91;4966922;28;124304;-64
2021/05/19 01:21:04;;;;;;;11.05;7.68;;;;;;;12.42;54.32;101478.31;4974430;28;124183;-63
2021/05/19 01:23:31;;;;;;;9.55;7.13;;;;;;;12.41;54.15;101476.56;4984263;28;114173;-63
2021/05/19 01:26:00;;;;;;;8.80;7.28;;;;;;;12.38;54.32;101476.72;4971321;28;114234;-63
2021/05/19 01:28:28;;;;;;;9.80;7.47;;;;;;;12.37;54.16;101480.31;4972076;28;124880;-62
2021/05/19 01:30:56;;;;;;;11.07;7.82;;;;;;;12.34;54.33;101476.00;4973502;28;124220;-63
2021/05/19 01:33:23;;;;;;;11.90;7.25;;;;;;;12.33;54.44;101478.72;4985420;28;113965;-64
2021/05/19 01:35:50;;;;;;;9.82;7.50;;;;;;;12.31;54.23;101476.13;4974074;28;113375;-68
2021/05/19 01:38:17;;;;;;;10.27;7.70;;;;;;;12.29;54.17;101477.13;4976781;28;123295;-64
2021/05/19 01:40:45;;;;;;;12.63;7.13;;;;;;;12.25;54.58;101471.91;4978971;28;124140;-63
2021/05/19 01:43:12;;;;;;;10.60;7.72;;;;;;;12.23;54.62;101463.16;4987112;28;115813;-64
2021/05/19 01:46:00;;;;;;;10.27;8.13;;;;;;;12.21;54.74;101470.31;4984272;28;114945;-64
2021/05/19 01:48:30;;;;;;;12.07;8.38;;;;;;;12.19;55.02;101472.19;4977252;28;125034;-63
2021/05/19 01:50:58;;;;;;;10.65;7.35;;;;;;;12.19;54.87;101472.19;4971693;28;123875;-63
2021/05/19 01:53:28;;;;;;;9.00;7.38;;;;;;;12.18;54.92;101464.28;4969006;28;114627;-64
2021/05/19 01:55:56;;;;;;;9.70;7.38;;;;;;;12.17;54.85;101466.06;4957700;28;114039;-63
2021/05/19 01:58:23;;;;;;;11.40;7.55;;;;;;;12.18;54.73;101470.44;4971584;28;123668;-63
2021/05/19 02:00:53;;;;;;;12.07;7.38;;;;;;;12.16;54.93;101467.00;4972321;28;123034;-63
2021/05/19 02:03:29;;;;;;;10.35;7.72;;;;;;;12.15;54.92;101465.28;4972553;28;113832;-63
2021/05/19 02:06:06;;;;;;;9.85;7.45;;;;;;;12.14;54.78;101474.16;4971866;28;116323;-63
2021/05/19 02:08:35;;;;;;;8.48;7.57;;;;;;;12.14;54.78;101468.84;4954799;28;123058;-63
2021/05/19 02:11:03;;;;;;;10.57;8.05;;;;;;;12.13;55.00;101472.44;4970897;28;124715;-63
2021/05/19 02:13:36;;;;;;;9.15;7.78;;;;;;;12.13;54.86;101472.44;4972034;28;113412;-63
2021/05/19 02:16:06;;;;;;;11.00;7.90;;;;;;;12.12;54.92;101461.88;4971578;28;114056;-63
2021/05/19 02:18:35;;;;;;;9.40;8.27;;;;;;;12.11;54.86;101473.41;4969622;28;124302;-63
2021/05/19 02:21:03;;;;;;;11.00;7.93;;;;;;;12.10;54.91;101467.25;4971757;28;123168;-63
2021/05/19 02:23:35;;;;;;;10.15;7.70;;;;;;;12.09;55.13;101468.16;4987314;28;113489;-63
2021/05/19 02:26:02;;;;;;;10.80;7.70;;;;;;;12.08;55.19;101474.41;4970799;28;114254;-63
2021/05/19 02:28:30;;;;;;;8.75;7.70;;;;;;;12.07;54.97;101472.69;4985308;28;123763;-63
2021/05/19 02:30:58;;;;;;;11.02;8.00;;;;;;;12.06;55.07;101470.97;4951358;28;124170;-63
2021/05/19 02:33:25;;;;;;;10.88;7.70;;;;;;;12.05;55.02;101474.53;4951147;28;115600;-63
2021/05/19 02:35:55;;;;;;;10.07;7.80;;;;;;;12.03;55.11;101473.75;4971741;28;114471;-63
2021/05/19 02:38:23;;;;;;;8.43;7.22;;;;;;;12.03;55.16;101471.09;4958810;28;124629;-63
2021/05/19 02:40:55;;;;;;;9.38;7.35;;;;;;;12.00;55.03;101473.88;4984208;28;122806;-68
2021/05/19 02:43:23;;;;;;;8.90;7.40;;;;;;;11.99;55.14;101464.19;4961012;28;115169;-63
2021/05/19 02:45:51;;;;;;;11.10;7.05;;;;;;;11.97;55.13;101476.66;4971408;28;114052;-63
2021/05/19 02:48:18;;;;;;;10.18;7.00;;;;;;;11.96;55.49;101472.25;4968766;28;123881;-63
2021/05/19 02:50:45;;;;;;;8.23;7.28;;;;;;;11.95;55.25;101468.75;4960827;28;123652;-63
2021/05/19 02:53:12;;;;;;;8.93;7.40;;;;;;;11.95;55.57;101470.53;4963740;28;114268;-63
2021/05/19 02:55:39;;;;;;;8.82;7.32;;;;;;;11.94;55.58;101471.47;4970855;28;114790;-64
2021/05/19 02:58:07;;;;;;;10.05;7.50;;;;;;;11.95;55.59;101473.19;4969791;28;123494;-64
2021/05/19 03:00:35;;;;;;;11.90;7.50;;;;;;;11.93;55.62;101464.44;4970079;28;123753;-64
2021/05/19 03:03:03;;;;;;;8.63;7.28;;;;;;;11.93;55.67;101464.44;4970045;28;114262;-64
2021/05/19 03:05:30;;;;;;;8.50;7.22;;;;;;;11.93;55.68;101459.97;4980159;28;113920;-63
2021/05/19 03:07:58;;;;;;;8.32;7.35;;;;;;;11.94;55.76;101466.16;4989814;28;122990;-63
2021/05/19 03:10:25;;;;;;;8.75;7.63;;;;;;;11.95;55.82;101467.88;4984107;28;123602;-63
2021/05/19 03:12:53;;;;;;;8.35;7.47;;;;;;;11.94;55.95;101471.47;4984027;28;114453;-63
2021/05/19 03:15:20;;;;;;;9.05;7.88;;;;;;;11.93;55.86;101464.44;4986295;28;113795;-63
2021/05/19 03:17:47;;;;;;;10.15;7.55;;;;;;;11.93;55.93;101469.75;4971823;28;124467;-63
2021/05/19 03:20:15;;;;;;;9.88;8.07;;;;;;;11.94;55.85;101466.16;4969662;28;124132;-63
2021/05/19 03:22:43;;;;;;;10.48;7.97;;;;;;;11.95;55.96;101467.88;4971059;28;115327;-63
2021/05/19 03:25:11;;;;;;;10.05;8.20;;;;;;;11.96;56.17;101474.91;4983465;28;114988;-63
2021/05/19 03:27:38;;;;;;;9.02;7.38;;;;;;;11.96;56.17;101470.50;4970571;28;124088;-63
2021/05/19 03:30:10;;;;;;;9.68;8.15;;;;;;;11.96;56.28;101469.59;4968332;28;124174;-63
2021/05/19 03:32:38;;;;;;;10.18;8.40;;;;;;;11.99;56.21;101470.34;4969499;28;115065;-63
2021/05/19 03:35:07;;;;;;;11.32;8.63;;;;;;;12.00;56.49;101473.88;4969319;28;113921;-63
2021/05/19 03:37:34;;;;;;;9.63;8.68;;;;;;;12.03;56.42;101476.41;4969937;28;124500;-63
2021/05/19 03:40:05;;;;;;;10.55;8.65;;;;;;;12.05;56.56;101469.22;4958673;28;124794;-63
2021/05/19 03:42:32;;;;;;;10.40;8.23;;;;;;;12.06;56.58;101477.13;4965852;28;114614;-63
2021/05/19 03:44:59;;;;;;;10.95;8.27;;;;;;;12.09;56.64;101476.13;4989652;28;114066;-63
2021/05/19 03:47:27;;;;;;;10.95;8.65;;;;;;;12.11;56.74;101473.41;4982766;28;125219;-63
2021/05/19 03:49:54;;;;;;;12.40;9.07;;;;;;;12.12;56.93;101470.72;4973313;28;123958;-63
2021/05/19 03:52:21;;;;;;;11.25;8.57;;;;;;;12.15;56.95;101475.91;4963539;28;113289;-63
2021/05/19 03:54:49;;;;;;;10.68;8.95;;;;;;;12.18;56.81;101472.25;4963975;28;114739;-63
2021/05/19 03:57:16;;;;;;;11.70;9.52;;;;;;;12.20;57.00;101473.91;4969103;28;123248;-63
2021/05/19 03:59:44;;;;;;;10.27;9.02;;;;;;;12.21;56.93;101475.63;4972978;28;124009;-63
2021/05/19 04:02:11;;;;;;;11.20;9.70;;;;;;;12.23;57.00;101484.41;4973503;28;115091;-63
2021/05/19 04:04:38;;;;;;;11.75;8.82;;;;;;;12.25;57.24;101477.22;4974593;28;113360;-63
2021/05/19 04:07:05;;;;;;;12.77;9.43;;;;;;;12.27;57.42;101475.38;4974056;28;124394;-62
2021/05/19 04:09:32;;;;;;;10.38;8.75;;;;;;;12.30;57.45;101473.50;4974440;28;124600;-62
2021/05/19 04:11:59;;;;;;;12.35;8.98;;;;;;;12.34;57.31;101469.78;4968657;28;115996;-63
2021/05/19 04:14:27;;;;;;;13.70;8.40;;;;;;;12.37;57.41;101472.34;4968416;28;115883;-62
2021/05/19 04:16:54;;;;;;;10.38;8.73;;;;;;;12.40;57.44;101474.88;4976687;28;124027;-62
2021/05/19 04:19:21;;;;;;;11.63;8.20;;;;;;;12.44;57.45;101479.13;4974168;28;124311;-62
2021/05/19 04:21:48;;;;;;;12.95;8.48;;;;;;;12.48;57.57;101472.75;4976529;28;114283;-62
2021/05/19 04:24:15;;;;;;;11.40;8.43;;;;;;;12.51;57.39;101483.25;4972602;28;113659;-64
2021/05/19 04:26:42;;;;;;;12.48;8.60;;;;;;;12.54;57.19;101477.78;4972981;28;124217;-64
2021/05/19 04:29:10;;;;;;;10.60;8.38;;;;;;;12.58;57.48;101479.41;4973020;28;123906;-63
2021/05/19 04:31:37;;;;;;;11.48;8.80;;;;;;;12.60;57.43;101481.97;4972597;28;114597;-64
2021/05/19 04:34:04;;;;;;;12.45;8.02;;;;;;;12.62;57.68;101481.00;4972687;28;114287;-64
2021/05/19 04:36:31;;;;;;;12.65;8.10;;;;;;;12.66;57.61;101487.03;4973726;28;124007;-64
2021/05/19 04:38:58;;;;;;;10.75;8.68;;;;;;;12.71;57.69;101478.84;4973444;28;124329;-64
2021/05/19 04:41:25;;;;;;;11.18;8.43;;;;;;;12.75;57.57;101485.75;4974430;28;114336;-64
2021/05/19 04:43:53;;;;;;;15.68;8.68;;;;;;;12.77;57.62;101489.22;4973689;28;114473;-63
2021/05/19 04:46:21;;;;;;;11.75;8.63;;;;;;;12.80;57.68;101483.75;4973247;28;123910;-64
2021/05/19 04:48:49;;;;;;;12.80;8.88;;;;;;;12.83;57.54;101488.97;4972190;28;123726;-64
2021/05/19 04:51:16;;;;;;;11.98;7.97;;;;;;;12.86;57.64;101494.13;4966789;28;114208;-64
2021/05/19 04:53:43;;;;;;;13.70;8.73;;;;;;;12.88;57.59;101486.94;4956092;28;114944;-64
2021/05/19 04:56:11;;;;;;;12.00;8.55;;;;;;;12.90;57.38;101484.22;4968454;28;125090;-64
2021/05/19 04:58:38;;;;;;;11.52;8.68;;;;;;;12.92;57.75;101488.56;4971047;28;124075;-64
2021/05/19 05:01:05;;;;;;;13.85;8.77;;;;;;;12.94;57.61;101492.00;4970580;28;116004;-64
2021/05/19 05:03:33;;;;;;;14.35;8.80;;;;;;;12.97;57.57;101494.50;4972442;28;115367;-64
2021/05/19 05:06:00;;;;;;;14.20;8.70;;;;;;;13.01;57.70;101488.13;4971944;28;124822;-64
2021/05/19 05:08:27;;;;;;;16.88;8.93;;;;;;;13.04;57.61;101493.31;4957976;28;123437;-64
2021/05/19 05:10:55;;;;;;;14.13;9.73;;;;;;;13.10;57.51;101499.28;4985103;28;114605;-64
2021/05/19 05:13:23;;;;;;;16.27;9.60;;;;;;;13.13;57.71;101502.69;4974714;28;114232;-65
2021/05/19 05:15:51;;;;;;;14.20;9.32;;;;;;;13.17;57.66;101498.09;4974399;28;124309;-65
2021/05/19 05:18:18;;;;;;;15.68;9.25;;;;;;;13.20;57.78;101497.94;4987755;28;124211;-64
2021/05/19 05:20:46;;;;;;;13.13;8.30;;;;;;;13.25;57.45;101498.59;4993266;28;115899;-64
2021/05/19 05:23:13;;;;;;;13.40;9.25;;;;;;;13.26;57.77;101497.66;4992204;28;112911;-63
2021/05/19 05:25:41;;;;;;;14.88;9.27;;;;;;;13.28;57.82;101498.47;4992086;28;123076;-64
2021/05/19 05:28:08;;;;;;;13.73;9.38;;;;;;;13.32;57.78;101497.41;4976767;28;123917;-64
2021/05/19 05:30:35;;;;;;;12.15;9.40;;;;;;;13.37;57.68;101506.06;4959904;28;114057;-64
2021/05/19 05:33:02;;;;;;;15.98;9.88;;;;;;;13.40;57.91;101511.22;4981458;28;114511;-63
2021/05/19 05:35:29;;;;;;;14.05;9.85;;;;;;;13.44;57.88;101510.13;4972270;28;124195;-63
2021/05/19 05:37:58;;;;;;;14.90;9.88;;;;;;;13.50;57.82;101510.78;4998064;22;124449;-65
2021/05/19 05:40:26;;;;;;;15.00;10.68;;;;;;;13.57;57.87;101517.56;4977745;28;114093;-65
2021/05/19 05:42:53;;;;;;;15.65;9.77;;;;;;;13.63;57.81;101511.94;4981229;28;114509;-65
2021/05/19 05:45:20;;;;;;;16.27;10.48;;;;;;;13.68;57.69;101525.91;4990369;28;124148;-65
2021/05/19 05:47:47;;;;;;;13.23;10.20;;;;;;;13.71;57.72;101515.13;4984233;28;123630;-65
2021/05/19 05:50:15;;;;;;;15.77;10.07;;;;;;;13.74;57.69;101520.28;4981470;28;114375;-65
2021/05/19 05:52:42;;;;;;;15.30;10.32;;;;;;;13.77;57.55;101520.16;4956201;28;115709;-65
2021/05/19 05:55:09;;;;;;;13.75;10.60;;;;;;;13.80;57.92;101514.66;4955993;28;123238;-65
2021/05/19 05:57:37;;;;;;;16.60;10.98;;;;;;;13.87;57.62;101515.25;4968042;28;123950;-65
2021/05/19 06:00:07;;;;;;;18.80;11.35;;;;;;;13.91;57.67;101510.63;4972007;28;114545;-65
2021/05/19 06:02:39;;;;;;;14.52;11.68;;;;;;;13.96;57.62;101514.78;4972002;28;114637;-66
2021/05/19 06:05:07;;;;;;;15.23;11.00;;;;;;;14.01;57.68;101517.22;4981739;28;124645;-66
2021/05/19 06:07:34;;;;;;;16.27;10.98;;;;;;;14.08;57.48;101521.31;4990178;28;124055;-66
2021/05/19 06:10:04;;;;;;;17.30;11.25;;;;;;;14.13;57.42;101521.97;4981149;28;114933;-66
2021/05/19 06:12:31;;;;;;;18.08;11.25;;;;;;;14.20;57.64;101511.84;4971704;28;113839;-67
2021/05/19 06:14:58;;;;;;;18.52;11.25;;;;;;;14.27;57.53;101517.75;4975107;28;124833;-66
2021/05/19 06:17:25;;;;;;;18.15;10.95;;;;;;;14.36;57.57;101517.28;4983916;28;124566;-66
2021/05/19 06:19:53;;;;;;;18.63;11.38;;;;;;;14.45;57.85;101515.94;4978972;28;114711;-66
2021/05/19 06:22:21;;;;;;;15.30;11.35;;;;;;;14.54;57.62;101521.69;4975200;28;114095;-66
2021/05/19 06:24:48;;;;;;;17.70;11.23;;;;;;;14.64;57.46;101521.28;4983747;28;124419;-66
2021/05/19 06:27:16;;;;;;;19.30;11.85;;;;;;;14.72;57.28;101524.41;4976625;28;124609;-65
2021/05/19 06:29:43;;;;;;;19.80;11.38;;;;;;;14.75;56.88;101521.59;4985943;28;113192;-67
2021/05/19 06:32:10;;;;;;;19.15;11.48;;;;;;;14.77;56.88;101522.34;4976109;28;112991;-66
2021/05/19 06:34:37;;;;;;;19.88;11.98;;;;;;;14.81;56.79;101523.06;4987171;28;124972;-67
2021/05/19 06:37:06;;;;;;;18.55;11.98;;;;;;;14.83;56.80;101527.38;4982640;28;122962;-66
2021/05/19 06:39:33;;;;;;;18.88;11.05;;;;;;;14.89;56.82;101521.72;4969758;28;115426;-67
2021/05/19 06:42:01;;;;;;;22.63;11.43;;;;;;;15.02;57.00;101526.41;4969382;28;114169;-66
2021/05/19 06:44:28;;;;;;;21.35;11.57;;;;;;;15.16;57.09;101518.50;4970512;28;124030;-66
2021/05/19 06:46:55;;;;;;;20.63;11.60;;;;;;;15.31;56.63;101528.41;4973357;28;122690;-66
2021/05/19 06:49:22;;;;;;;20.70;12.23;;;;;;;15.40;56.55;101526.16;4971347;28;114395;-66
2021/05/19 06:51:50;;;;;;;16.25;11.25;;;;;;;15.50;56.52;101527.38;4959640;28;114184;-67
2021/05/19 06:54:17;;;;;;;17.88;11.65;;;;;;;15.61;56.33;101519.63;4957649;28;123963;-67
2021/05/19 06:56:45;;;;;;;19.90;11.88;;;;;;;15.73;56.34;101529.69;4972471;28;123576;-66
2021/05/19 06:59:14;;;;;;;21.02;12.07;;;;;;;15.85;56.15;101528.13;4977428;28;114419;-66
2021/05/19 07:01:41;;;;;;;16.73;11.05;;;;;;;15.93;55.74;101533.03;4973742;28;114163;-67
2021/05/19 07:04:09;;;;;;;14.90;11.75;;;;;;;15.97;55.67;101531.91;4970109;28;124426;-66
2021/05/19 07:06:36;;;;;;;21.00;12.60;;;;;;;16.04;55.46;101533.28;4959896;28;123368;-67
2021/05/19 07:09:04;;;;;;;18.35;12.20;;;;;;;16.06;55.46;101534.03;4973849;28;115365;-66
2021/05/19 07:11:33;;;;;;;21.25;12.63;;;;;;;16.11;55.42;101534.66;4976829;28;114960;-67
2021/05/19 07:14:01;;;;;;;22.20;12.77;;;;;;;16.14;55.35;101528.25;4967039;28;124404;-67
2021/05/19 07:16:30;;;;;;;22.30;12.45;;;;;;;16.20;55.43;101532.38;4967105;28;124031;-66
2021/05/19 07:18:57;;;;;;;20.65;12.43;;;;;;;16.26;55.48;101532.91;4966800;28;114315;-67
2021/05/19 07:21:26;;;;;;;23.25;13.50;;;;;;;16.34;55.43;101529.78;4971240;28;114054;-67
2021/05/19 07:23:53;;;;;;;23.08;13.57;;;;;;;16.40;55.30;101529.44;4957650;28;123108;-67
2021/05/19 07:26:23;;;;;;;23.50;14.07;;;;;;;16.45;55.00;101527.34;4973458;28;123502;-66
2021/05/19 07:28:52;;;;;;;22.88;14.05;;;;;;;16.53;54.99;101535.78;4966818;28;117018;-66
2021/05/19 07:31:19;;;;;;;22.98;14.15;;;;;;;16.59;54.90;101539.03;4968709;28;115352;-66
2021/05/19 07:33:48;;;;;;;22.60;13.85;;;;;;;16.62;54.62;101538.88;4970510;28;124477;-67
2021/05/19 07:36:16;;;;;;;22.80;13.70;;;;;;;16.65;54.70;101533.31;4970994;28;124087;-66
2021/05/19 07:38:43;;;;;;;21.70;12.95;;;;;;;16.70;54.58;101536.59;4971293;28;114275;-66
2021/05/19 07:41:12;;;;;;;18.73;13.35;;;;;;;16.77;54.55;101548.66;4971875;28;113996;-66
2021/05/19 07:43:39;;;;;;;24.10;13.38;;;;;;;16.81;54.29;101539.47;4969204;28;124273;-66
2021/05/19 07:46:06;;;;;;;22.15;14.23;;;;;;;16.83;54.26;101548.31;4960549;28;124094;-66
2021/05/19 07:48:32;;;;;;;20.63;13.98;;;;;;;16.86;53.90;101541.94;4969847;28;113224;-66
2021/05/19 07:50:58;;;;;;;21.63;13.77;;;;;;;16.84;53.95;101549.16;4962141;28;113834;-66
2021/05/19 07:53:24;;;;;;;20.45;13.65;;;;;;;16.83;53.86;101542.97;4963971;28;123474;-66
2021/05/19 07:55:56;;;;;;;21.15;14.18;;;;;;;16.81;53.77;101544.84;4957571;28;124362;-66
2021/05/19 07:58:32;;;;;;;25.60;15.07;;;;;;;16.78;53.69;101545.00;4970249;28;113234;-66
2021/05/19 08:01:07;;;;;;;20.98;15.90;;;;;;;16.78;53.64;101539.66;4968069;28;114281;-66
2021/05/19 08:03:34;;;;;;;;;;;;;;;16.75;53.72;101545.22;4970236;28;124565;-66
2021/05/19 08:06:00;;;;;;;22.35;15.60;;;;;;;16.77;53.44;101548.66;4965505;28;124299;-66
2021/05/19 08:08:26;;;;;;;22.92;16.02;;;;;;;16.76;53.57;101541.56;4973770;28;114051;-66
2021/05/19 08:10:52;;;;;;;24.08;16.23;;;;;;;16.80;53.95;101537.78;4990483;28;112934;-67
2021/05/19 08:13:18;;;;;;;22.75;15.15;;;;;;;16.81;53.76;101539.47;4969168;28;124299;-66
2021/05/19 08:15:45;;;;;;;20.70;13.98;;;;;;;16.87;53.80;101539.13;4969975;28;122767;-66
2021/05/19 08:18:11;;;;;;;25.95;15.23;;;;;;;16.92;53.75;101537.06;4982803;28;114208;-67
2021/05/19 08:20:39;;;;;;;21.17;13.35;;;;;;;16.99;53.88;101526.84;4978626;28;114104;-67
2021/05/19 08:23:06;;;;;;;20.95;14.18;;;;;;;17.12;54.18;101532.28;4987459;28;124864;-66
2021/05/19 08:25:34;;;;;;;22.10;14.20;;;;;;;17.26;54.17;101524.28;4967340;28;124049;-66
2021/05/19 08:28:01;;;;;;;21.13;14.02;;;;;;;17.43;53.91;101525.03;4983053;28;114336;-66
2021/05/19 08:30:28;;;;;;;20.73;13.30;;;;;;;17.58;53.79;101518.72;4970920;28;113896;-68
2021/05/19 08:32:56;;;;;;;22.73;13.70;;;;;;;17.74;53.78;101528.44;4964509;28;123162;-67
2021/05/19 08:35:23;;;;;;;18.20;12.40;;;;;;;17.90;53.42;101523.84;4972256;28;124648;-67
2021/05/19 08:37:51;;;;;;;18.60;11.90;;;;;;;18.03;53.25;101530.13;4971263;28;113140;-67
2021/05/19 08:40:18;;;;;;;16.20;11.63;;;;;;;18.16;52.94;101529.28;4986618;28;114335;-67
2021/05/19 08:42:45;;;;;;;21.27;11.55;;;;;;;18.28;52.85;101533.88;4992542;28;123876;-67
2021/05/19 08:45:12;;;;;;;16.83;11.15;;;;;;;18.38;52.30;101529.59;4978992;28;124240;-67
2021/05/19 08:47:40;;;;;;;15.77;10.27;;;;;;;18.45;51.87;101530.91;4992002;28;113174;-67
2021/05/19 08:50:08;;;;;;;14.00;9.02;;;;;;;18.48;51.46;101530.72;4978773;28;114590;-67
2021/05/19 08:52:40;;;;;;;15.75;9.20;;;;;;;18.48;51.13;101524.50;4971740;28;124448;-67
2021/05/19 08:55:13;;;;;;;15.90;8.45;;;;;;;18.44;51.09;101523.84;4973917;28;123313;-65
2021/05/19 08:57:42;;;;;;;12.90;7.93;;;;;;;18.43;50.87;101527.47;4969448;28;113709;-65
2021/05/19 09:00:10;;;;;;;13.25;7.72;;;;;;;18.43;51.50;101532.84;4972813;28;114083;-65
2021/05/19 09:02:38;;;;;;;14.65;7.43;;;;;;;18.44;51.12;101529.19;4970991;28;124440;-66
2021/05/19 09:05:06;;;;;;;15.65;7.38;;;;;;;18.44;50.86;101531.88;4970453;28;124334;-66
2021/05/19 09:07:37;;;;;;;12.98;7.15;;;;;;;18.43;50.56;101532.84;4972622;28;115685;-66
2021/05/19 09:10:18;;;;;;;14.63;6.80;;;;;;;18.40;50.71;101527.69;4985029;28;113778;-66
2021/05/19 09:12:45;;;;;;;14.32;6.75;;;;;;;18.39;50.42;101528.63;4973388;28;122949;-67
2021/05/19 09:15:13;;;;;;;15.63;6.88;;;;;;;18.36;50.05;101530.66;4983209;28;124305;-66
2021/05/19 09:17:41;;;;;;;11.20;6.50;;;;;;;18.29;49.82;101531.09;4972429;28;114709;-66
2021/05/19 09:20:15;;;;;;;12.82;6.65;;;;;;;18.21;49.87;101527.19;4971162;28;114199;-67
2021/05/19 09:22:45;;;;;;;9.33;6.93;;;;;;;18.17;50.13;101525.66;4970208;28;124162;-67
2021/05/19 09:25:22;;;;;;;13.30;7.60;;;;;;;18.15;50.25;101530.28;4975939;28;124079;-67
2021/05/19 09:27:51;;;;;;;15.43;6.95;;;;;;;18.15;50.45;101522.22;4980631;28;114336;-67
2021/05/19 09:30:34;;;;;;;15.93;6.07;;;;;;;18.15;50.49;101527.59;4972769;28;113617;-67
2021/05/19 09:33:23;;;;;;;12.15;6.70;;;;;;;18.20;50.75;101520.13;4970819;28;124001;-67
2021/05/19 09:36:19;;;;;;;11.68;6.15;;;;;;;18.25;50.69;101512.59;4973678;28;124617;-66
2021/05/19 09:38:51;;;;;;;11.85;6.25;;;;;;;18.35;50.73;101519.09;4971553;28;112143;-67
2021/05/19 09:41:18;;;;;;;13.32;6.43;;;;;;;18.46;50.54;101515.69;4982767;28;112806;-67
2021/05/19 09:43:46;;;;;;;10.98;6.90;;;;;;;18.62;50.63;101520.84;4969449;28;124010;-66
2021/05/19 09:46:21;;;;;;;10.38;6.53;;;;;;;18.79;51.00;101517.88;4972678;28;123992;-67
2021/05/19 09:49:21;;;;;;;14.75;6.70;;;;;;;19.01;50.39;101516.44;4971977;28;113664;-67
2021/05/19 09:52:14;;;;;;;11.63;6.15;;;;;;;19.21;50.23;101507.84;4969672;28;114062;-67
2021/05/19 09:54:44;;;;;;;12.13;5.57;;;;;;;19.40;50.25;101511.88;4988435;28;125757;-67
2021/05/19 09:57:17;;;;;;;;;;;;;;;19.55;50.82;101510.78;4971557;28;124884;-66
2021/05/19 09:59:49;;;;;;;10.57;5.78;;;;;;;19.77;49.83;101509.25;4970649;28;115899;-67
2021/05/19 10:02:16;;;;;;;10.77;5.68;;;;;;;19.90;49.67;101501.97;4986341;28;115730;-67
2021/05/19 10:04:51;;;;;;;11.93;5.75;;;;;;;20.06;48.67;101498.16;4973762;28;98555;-67
2021/05/19 10:07:19;;;;;;;11.52;5.40;;;;;;;20.24;48.36;101502.16;4970069;28;122799;-67
2021/05/19 10:09:47;;;;;;;10.32;5.72;;;;;;;20.41;47.54;101493.66;4972991;28;113508;-66
2021/05/19 10:12:17;;;;;;;10.55;5.35;;;;;;;20.50;47.12;101493.94;4972286;28;114486;-67
2021/05/19 10:14:45;;;;;;;11.02;5.43;;;;;;;20.54;46.69;101498.09;4978790;28;125115;-66
2021/05/19 10:17:14;;;;;;;11.25;4.90;;;;;;;20.59;46.44;101495.94;4972078;28;122967;-67
2021/05/19 10:19:50;;;;;;;11.52;5.50;;;;;;;20.58;46.44;101494.19;4962765;28;114574;-66
2021/05/19 10:22:20;;;;;;;9.20;5.30;;;;;;;20.65;46.40;101484.72;4966969;28;114393;-67
2021/05/19 10:25:17;;;;;;;7.80;4.40;;;;;;;20.73;46.22;101493.03;4967557;28;124557;-67
2021/05/19 10:27:59;;;;;;;9.73;4.45;;;;;;;20.87;45.95;101485.72;4961545;28;122929;-67
2021/05/19 10:30:36;;;;;;;10.23;4.60;;;;;;;21.01;46.13;101480.13;4968802;28;114355;-67
2021/05/19 10:33:06;;;;;;;12.13;4.75;;;;;;;21.10;46.05;101484.78;4972968;28;114771;-67
2021/05/19 10:35:36;;;;;;;9.10;4.22;;;;;;;21.18;45.07;101471.53;4975921;28;124112;-66
2021/05/19 10:38:26;;;;;;;13.20;4.50;;;;;;;21.25;45.03;101481.81;4980974;28;124308;-67
2021/05/19 10:40:58;;;;;;;9.95;4.30;;;;;;;21.32;44.88;101483.03;4977337;28;114527;-67
2021/05/19 10:43:48;;;;;;;9.18;4.68;;;;;;;21.39;44.45;101485.13;4978383;28;113875;-67
2021/05/19 10:47:15;;;;;;;9.57;4.85;;;;;;;21.44;44.41;101482.09;4969487;28;124350;-67
2021/05/19 10:49:47;;;;;;;11.38;5.18;;;;;;;21.55;44.22;101484.78;4980513;28;130101;-66
2021/05/19 10:58:01;;;;;;;12.35;5.55;;;;;;;21.57;43.24;101482.81;4979941;28;124070;-66
2021/05/19 11:00:32;;;;;;;10.38;5.82;;;;;;;21.48;43.18;101486.25;4978852;28;124234;-66
2021/05/19 11:03:00;;;;;;;9.35;4.95;;;;;;;21.37;43.34;101487.09;4972786;28;114471;-66
2021/05/19 11:05:55;;;;;;;9.05;5.55;;;;;;;21.25;42.73;101487.19;4979174;28;114388;-65
2021/05/19 11:08:29;;;;;;;9.63;5.63;;;;;;;21.07;43.03;101485.00;4971162;28;124823;-66
2021/05/19 11:11:29;;;;;;;10.33;5.53;;;;;;;20.80;43.75;101494.28;4977231;28;124058;-65
2021/05/19 11:14:36;;;;;;;8.45;3.63;;;;;;;20.54;44.26;101498.09;4972833;28;114614;-66
2021/05/19 11:17:16;;;;;;;9.48;5.40;;;;;;;20.35;44.72;101504.03;4975161;28;114604;-65
2021/05/19 11:19:43;;;;;;;12.45;6.25;;;;;;;20.12;45.42;101522.78;4974733;28;124821;-65
2021/05/19 11:22:11;;;;;;;12.57;8.00;;;;;;;19.90;45.98;101526.19;4971934;28;123887;-65
2021/05/19 11:24:56;;;;;;;12.20;6.10;;;;;;;19.63;46.05;101529.88;4971388;28;113622;-65
2021/05/19 11:27:32;;;;;;;7.80;5.72;;;;;;;19.36;46.13;101556.88;4975098;28;112994;-65
2021/05/19 11:30:00;;;;;;;9.85;5.22;;;;;;;19.06;45.87;101568.84;4974615;28;124313;-65